sensor_id;sensor_type;location;lat;lon;timestamp;P1;durP1;ratioP1;P2;durP2;ratioP2
26391;SDS011;14572;43.120;1.178;2023-12-04T00:00:08;4.70;;;2.72;;
26391;SDS011;14572;43.120;1.178;2023-12-04T00:02:36;5.20;;;2.45;;
26391;SDS011;14572;43.120;1.178;2023-12-04T00:05:05;4.55;;;2.80;;
26391;SDS011;14572;43.120;1.178;2023-12-04T00:07:36;6.00;;;3.08;;
26391;SDS011;14572;43.120;1.178;2023-12-04T00:10:03;4.80;;;2.88;;
26391;SDS011;14572;43.120;1.178;2023-12-04T00:12:31;7.13;;;3.33;;
26391;SDS011;14572;43.120;1.178;2023-12-04T00:15:00;5.78;;;3.05;;
26391;SDS011;14572;43.120;1.178;2023-12-04T00:17:27;5.10;;;3.10;;
26391;SDS011;14572;43.120;1.178;2023-12-04T00:19:54;7.20;;;2.85;;
26391;SDS011;14572;43.120;1.178;2023-12-04T00:22:21;9.90;;;3.33;;
26391;SDS011;14572;43.120;1.178;2023-12-04T00:24:51;3.92;;;2.92;;
26391;SDS011;14572;43.120;1.178;2023-12-04T00:27:18;5.90;;;3.00;;
26391;SDS011;14572;43.120;1.178;2023-12-04T00:29:46;5.75;;;2.97;;
26391;SDS011;14572;43.120;1.178;2023-12-04T00:32:15;4.28;;;2.63;;
26391;SDS011;14572;43.120;1.178;2023-12-04T00:34:42;4.13;;;2.65;;
26391;SDS011;14572;43.120;1.178;2023-12-04T00:37:09;4.80;;;2.65;;
26391;SDS011;14572;43.120;1.178;2023-12-04T00:39:37;6.70;;;3.03;;
26391;SDS011;14572;43.120;1.178;2023-12-04T00:42:07;5.28;;;2.80;;
26391;SDS011;14572;43.120;1.178;2023-12-04T00:44:34;4.28;;;2.42;;
26391;SDS011;14572;43.120;1.178;2023-12-04T00:47:01;5.88;;;2.40;;
26391;SDS011;14572;43.120;1.178;2023-12-04T00:49:30;4.60;;;2.33;;
26391;SDS011;14572;43.120;1.178;2023-12-04T00:51:57;4.43;;;2.50;;
26391;SDS011;14572;43.120;1.178;2023-12-04T00:54:24;6.00;;;2.40;;
26391;SDS011;14572;43.120;1.178;2023-12-04T00:56:51;3.42;;;2.22;;
26391;SDS011;14572;43.120;1.178;2023-12-04T00:59:19;4.00;;;2.40;;
26391;SDS011;14572;43.120;1.178;2023-12-04T01:01:46;3.58;;;2.40;;
26391;SDS011;14572;43.120;1.178;2023-12-04T01:04:13;6.53;;;2.50;;
26391;SDS011;14572;43.120;1.178;2023-12-04T01:06:42;3.47;;;2.17;;
26391;SDS011;14572;43.120;1.178;2023-12-04T01:09:09;7.53;;;2.42;;
26391;SDS011;14572;43.120;1.178;2023-12-04T01:11:40;4.13;;;2.38;;
26391;SDS011;14572;43.120;1.178;2023-12-04T01:14:07;5.47;;;2.20;;
26391;SDS011;14572;43.120;1.178;2023-12-04T01:16:36;4.80;;;2.10;;
26391;SDS011;14572;43.120;1.178;2023-12-04T01:19:04;6.82;;;2.53;;
26391;SDS011;14572;43.120;1.178;2023-12-04T01:21:31;3.47;;;2.20;;
26391;SDS011;14572;43.120;1.178;2023-12-04T01:24:00;8.77;;;2.83;;
26391;SDS011;14572;43.120;1.178;2023-12-04T01:26:30;3.90;;;2.33;;
26391;SDS011;14572;43.120;1.178;2023-12-04T01:29:03;4.32;;;2.45;;
26391;SDS011;14572;43.120;1.178;2023-12-04T01:31:31;4.07;;;2.20;;
26391;SDS011;14572;43.120;1.178;2023-12-04T01:33:58;4.05;;;2.17;;
26391;SDS011;14572;43.120;1.178;2023-12-04T01:36:28;5.13;;;2.83;;
26391;SDS011;14572;43.120;1.178;2023-12-04T01:38:55;6.00;;;3.20;;
26391;SDS011;14572;43.120;1.178;2023-12-04T01:41:27;5.38;;;2.55;;
26391;SDS011;14572;43.120;1.178;2023-12-04T01:43:55;6.25;;;2.30;;
26391;SDS011;14572;43.120;1.178;2023-12-04T01:46:22;4.57;;;2.70;;
26391;SDS011;14572;43.120;1.178;2023-12-04T01:48:52;5.65;;;2.58;;
26391;SDS011;14572;43.120;1.178;2023-12-04T01:51:23;3.97;;;2.05;;
26391;SDS011;14572;43.120;1.178;2023-12-04T01:53:51;6.70;;;3.15;;
26391;SDS011;14572;43.120;1.178;2023-12-04T01:56:18;5.10;;;2.35;;
26391;SDS011;14572;43.120;1.178;2023-12-04T01:58:48;4.20;;;2.35;;
26391;SDS011;14572;43.120;1.178;2023-12-04T02:01:17;3.22;;;2.10;;
26391;SDS011;14572;43.120;1.178;2023-12-04T02:03:45;2.95;;;2.28;;
26391;SDS011;14572;43.120;1.178;2023-12-04T02:06:13;3.92;;;2.25;;
26391;SDS011;14572;43.120;1.178;2023-12-04T02:08:40;4.38;;;2.53;;
26391;SDS011;14572;43.120;1.178;2023-12-04T02:11:11;3.95;;;2.28;;
26391;SDS011;14572;43.120;1.178;2023-12-04T02:13:38;3.65;;;2.15;;
26391;SDS011;14572;43.120;1.178;2023-12-04T02:16:09;3.72;;;1.88;;
26391;SDS011;14572;43.120;1.178;2023-12-04T02:18:37;3.63;;;2.13;;
26391;SDS011;14572;43.120;1.178;2023-12-04T02:21:05;4.38;;;2.13;;
26391;SDS011;14572;43.120;1.178;2023-12-04T02:23:32;4.80;;;2.15;;
26391;SDS011;14572;43.120;1.178;2023-12-04T02:26:03;6.13;;;3.60;;
26391;SDS011;14572;43.120;1.178;2023-12-04T02:28:35;8.05;;;3.35;;
26391;SDS011;14572;43.120;1.178;2023-12-04T02:31:04;4.63;;;2.75;;
26391;SDS011;14572;43.120;1.178;2023-12-04T02:33:31;6.22;;;2.85;;
26391;SDS011;14572;43.120;1.178;2023-12-04T02:35:59;6.32;;;2.67;;
26391;SDS011;14572;43.120;1.178;2023-12-04T02:38:28;7.95;;;4.10;;
26391;SDS011;14572;43.120;1.178;2023-12-04T02:40:55;12.40;;;3.75;;
26391;SDS011;14572;43.120;1.178;2023-12-04T02:43:27;7.05;;;3.33;;
26391;SDS011;14572;43.120;1.178;2023-12-04T02:45:54;15.32;;;5.47;;
26391;SDS011;14572;43.120;1.178;2023-12-04T02:48:22;10.35;;;4.90;;
26391;SDS011;14572;43.120;1.178;2023-12-04T02:50:52;9.70;;;4.35;;
26391;SDS011;14572;43.120;1.178;2023-12-04T02:53:21;8.30;;;3.80;;
26391;SDS011;14572;43.120;1.178;2023-12-04T02:55:48;13.90;;;4.13;;
26391;SDS011;14572;43.120;1.178;2023-12-04T02:58:16;10.68;;;4.72;;
26391;SDS011;14572;43.120;1.178;2023-12-04T03:00:48;7.50;;;4.07;;
26391;SDS011;14572;43.120;1.178;2023-12-04T03:03:15;7.90;;;4.22;;
26391;SDS011;14572;43.120;1.178;2023-12-04T03:05:42;7.65;;;4.13;;
26391;SDS011;14572;43.120;1.178;2023-12-04T03:08:10;9.13;;;3.60;;
26391;SDS011;14572;43.120;1.178;2023-12-04T03:10:37;6.32;;;3.63;;
26391;SDS011;14572;43.120;1.178;2023-12-04T03:13:04;7.95;;;3.60;;
26391;SDS011;14572;43.120;1.178;2023-12-04T03:15:31;5.95;;;3.40;;
26391;SDS011;14572;43.120;1.178;2023-12-04T03:18:01;5.38;;;3.15;;
26391;SDS011;14572;43.120;1.178;2023-12-04T03:20:29;11.10;;;4.07;;
26391;SDS011;14572;43.120;1.178;2023-12-04T03:22:59;6.78;;;3.95;;
26391;SDS011;14572;43.120;1.178;2023-12-04T03:25:29;10.55;;;3.70;;
26391;SDS011;14572;43.120;1.178;2023-12-04T03:27:57;6.70;;;3.58;;
26391;SDS011;14572;43.120;1.178;2023-12-04T03:30:24;5.25;;;3.50;;
26391;SDS011;14572;43.120;1.178;2023-12-04T03:32:51;8.18;;;3.30;;
26391;SDS011;14572;43.120;1.178;2023-12-04T03:35:20;4.35;;;2.50;;
26391;SDS011;14572;43.120;1.178;2023-12-04T03:37:47;6.82;;;2.95;;
26391;SDS011;14572;43.120;1.178;2023-12-04T03:40:15;8.90;;;3.58;;
26391;SDS011;14572;43.120;1.178;2023-12-04T03:42:42;7.72;;;3.20;;
26391;SDS011;14572;43.120;1.178;2023-12-04T03:45:09;3.85;;;3.05;;
26391;SDS011;14572;43.120;1.178;2023-12-04T03:47:37;5.47;;;3.08;;
26391;SDS011;14572;43.120;1.178;2023-12-04T03:50:04;5.43;;;2.90;;
26391;SDS011;14572;43.120;1.178;2023-12-04T03:52:36;5.57;;;2.55;;
26391;SDS011;14572;43.120;1.178;2023-12-04T03:55:04;6.28;;;2.67;;
26391;SDS011;14572;43.120;1.178;2023-12-04T03:57:32;4.47;;;2.60;;
26391;SDS011;14572;43.120;1.178;2023-12-04T04:00:06;5.35;;;2.15;;
26391;SDS011;14572;43.120;1.178;2023-12-04T04:02:35;5.90;;;2.10;;
26391;SDS011;14572;43.120;1.178;2023-12-04T04:05:03;6.40;;;2.60;;
26391;SDS011;14572;43.120;1.178;2023-12-04T04:07:31;5.05;;;2.13;;
26391;SDS011;14572;43.120;1.178;2023-12-04T04:10:00;5.82;;;2.10;;
26391;SDS011;14572;43.120;1.178;2023-12-04T04:12:27;3.65;;;2.00;;
26391;SDS011;14572;43.120;1.178;2023-12-04T04:14:54;5.05;;;2.30;;
26391;SDS011;14572;43.120;1.178;2023-12-04T04:17:22;4.30;;;1.88;;
26391;SDS011;14572;43.120;1.178;2023-12-04T04:19:51;5.25;;;2.40;;
26391;SDS011;14572;43.120;1.178;2023-12-04T04:22:18;3.33;;;2.13;;
26391;SDS011;14572;43.120;1.178;2023-12-04T04:24:48;6.15;;;2.53;;
26391;SDS011;14572;43.120;1.178;2023-12-04T04:27:17;4.22;;;2.40;;
26391;SDS011;14572;43.120;1.178;2023-12-04T04:29:45;6.00;;;2.42;;
26391;SDS011;14572;43.120;1.178;2023-12-04T04:32:12;3.67;;;2.50;;
26391;SDS011;14572;43.120;1.178;2023-12-04T04:34:39;3.97;;;2.40;;
26391;SDS011;14572;43.120;1.178;2023-12-04T04:37:07;4.05;;;2.60;;
26391;SDS011;14572;43.120;1.178;2023-12-04T04:39:34;4.13;;;2.15;;
26391;SDS011;14572;43.120;1.178;2023-12-04T04:42:04;8.60;;;2.97;;
26391;SDS011;14572;43.120;1.178;2023-12-04T04:44:33;8.65;;;2.30;;
26391;SDS011;14572;43.120;1.178;2023-12-04T04:47:06;5.78;;;2.25;;
26391;SDS011;14572;43.120;1.178;2023-12-04T04:49:33;4.53;;;2.42;;
26391;SDS011;14572;43.120;1.178;2023-12-04T04:52:00;5.78;;;2.63;;
26391;SDS011;14572;43.120;1.178;2023-12-04T04:54:30;3.20;;;2.10;;
26391;SDS011;14572;43.120;1.178;2023-12-04T04:56:57;5.95;;;3.53;;
26391;SDS011;14572;43.120;1.178;2023-12-04T04:59:24;8.43;;;4.38;;
26391;SDS011;14572;43.120;1.178;2023-12-04T05:01:54;6.55;;;4.38;;
26391;SDS011;14572;43.120;1.178;2023-12-04T05:04:21;6.78;;;3.97;;
26391;SDS011;14572;43.120;1.178;2023-12-04T05:06:48;4.28;;;2.30;;
26391;SDS011;14572;43.120;1.178;2023-12-04T05:09:16;4.40;;;2.53;;
26391;SDS011;14572;43.120;1.178;2023-12-04T05:11:43;6.00;;;2.20;;
26391;SDS011;14572;43.120;1.178;2023-12-04T05:14:13;4.40;;;2.20;;
26391;SDS011;14572;43.120;1.178;2023-12-04T05:16:41;6.60;;;2.08;;
26391;SDS011;14572;43.120;1.178;2023-12-04T05:19:10;4.00;;;1.70;;
26391;SDS011;14572;43.120;1.178;2023-12-04T05:21:37;4.38;;;2.10;;
26391;SDS011;14572;43.120;1.178;2023-12-04T05:24:04;5.18;;;1.88;;
26391;SDS011;14572;43.120;1.178;2023-12-04T05:26:32;8.13;;;2.90;;
26391;SDS011;14572;43.120;1.178;2023-12-04T05:29:00;5.20;;;2.33;;
26391;SDS011;14572;43.120;1.178;2023-12-04T05:31:27;6.45;;;2.35;;
26391;SDS011;14572;43.120;1.178;2023-12-04T05:33:54;5.28;;;1.95;;
26391;SDS011;14572;43.120;1.178;2023-12-04T05:36:23;3.53;;;2.40;;
26391;SDS011;14572;43.120;1.178;2023-12-04T05:38:50;2.10;;;1.70;;
26391;SDS011;14572;43.120;1.178;2023-12-04T05:41:18;5.05;;;2.20;;
26391;SDS011;14572;43.120;1.178;2023-12-04T05:43:45;3.20;;;2.13;;
26391;SDS011;14572;43.120;1.178;2023-12-04T05:46:13;3.80;;;2.28;;
26391;SDS011;14572;43.120;1.178;2023-12-04T05:48:40;3.58;;;2.67;;
26391;SDS011;14572;43.120;1.178;2023-12-04T05:51:07;4.50;;;1.90;;
26391;SDS011;14572;43.120;1.178;2023-12-04T05:53:39;4.15;;;2.05;;
26391;SDS011;14572;43.120;1.178;2023-12-04T05:56:06;3.90;;;2.10;;
26391;SDS011;14572;43.120;1.178;2023-12-04T05:58:35;4.32;;;1.98;;
26391;SDS011;14572;43.120;1.178;2023-12-04T06:01:02;4.80;;;1.83;;
26391;SDS011;14572;43.120;1.178;2023-12-04T06:03:31;5.82;;;2.20;;
26391;SDS011;14572;43.120;1.178;2023-12-04T06:05:58;3.13;;;2.05;;
26391;SDS011;14572;43.120;1.178;2023-12-04T06:08:25;5.00;;;2.22;;
26391;SDS011;14572;43.120;1.178;2023-12-04T06:10:54;6.07;;;2.05;;
26391;SDS011;14572;43.120;1.178;2023-12-04T06:13:22;5.90;;;2.00;;
26391;SDS011;14572;43.120;1.178;2023-12-04T06:15:49;6.45;;;2.30;;
26391;SDS011;14572;43.120;1.178;2023-12-04T06:18:17;4.40;;;2.22;;
26391;SDS011;14572;43.120;1.178;2023-12-04T06:20:45;6.68;;;1.98;;
26391;SDS011;14572;43.120;1.178;2023-12-04T06:23:13;3.08;;;1.58;;
26391;SDS011;14572;43.120;1.178;2023-12-04T06:25:40;5.80;;;1.92;;
26391;SDS011;14572;43.120;1.178;2023-12-04T06:28:11;4.32;;;1.75;;
26391;SDS011;14572;43.120;1.178;2023-12-04T06:30:39;3.75;;;1.90;;
26391;SDS011;14572;43.120;1.178;2023-12-04T06:33:07;2.83;;;1.80;;
26391;SDS011;14572;43.120;1.178;2023-12-04T06:35:35;3.20;;;1.70;;
26391;SDS011;14572;43.120;1.178;2023-12-04T06:38:05;3.72;;;2.33;;
26391;SDS011;14572;43.120;1.178;2023-12-04T06:40:33;3.63;;;1.60;;
26391;SDS011;14572;43.120;1.178;2023-12-04T06:43:01;2.88;;;1.55;;
26391;SDS011;14572;43.120;1.178;2023-12-04T06:45:31;4.97;;;2.03;;
26391;SDS011;14572;43.120;1.178;2023-12-04T06:47:59;5.95;;;1.92;;
26391;SDS011;14572;43.120;1.178;2023-12-04T06:50:27;3.65;;;1.60;;
26391;SDS011;14572;43.120;1.178;2023-12-04T06:52:54;3.90;;;1.55;;
26391;SDS011;14572;43.120;1.178;2023-12-04T06:55:22;4.07;;;1.60;;
26391;SDS011;14572;43.120;1.178;2023-12-04T06:57:49;3.10;;;1.65;;
26391;SDS011;14572;43.120;1.178;2023-12-04T07:00:17;4.75;;;1.63;;
26391;SDS011;14572;43.120;1.178;2023-12-04T07:02:45;4.15;;;1.73;;
26391;SDS011;14572;43.120;1.178;2023-12-04T07:05:12;4.78;;;1.85;;
26391;SDS011;14572;43.120;1.178;2023-12-04T07:07:40;2.63;;;1.75;;
26391;SDS011;14572;43.120;1.178;2023-12-04T07:10:07;3.00;;;1.88;;
26391;SDS011;14572;43.120;1.178;2023-12-04T07:12:40;5.50;;;2.15;;
26391;SDS011;14572;43.120;1.178;2023-12-04T07:15:08;3.05;;;2.00;;
26391;SDS011;14572;43.120;1.178;2023-12-04T07:17:36;6.18;;;2.00;;
26391;SDS011;14572;43.120;1.178;2023-12-04T07:20:06;3.45;;;1.98;;
26391;SDS011;14572;43.120;1.178;2023-12-04T07:22:38;4.45;;;1.65;;
26391;SDS011;14572;43.120;1.178;2023-12-04T07:25:06;4.38;;;1.45;;
26391;SDS011;14572;43.120;1.178;2023-12-04T07:27:33;4.28;;;1.30;;
26391;SDS011;14572;43.120;1.178;2023-12-04T07:30:00;3.95;;;2.28;;
26391;SDS011;14572;43.120;1.178;2023-12-04T07:32:28;3.80;;;2.80;;
26391;SDS011;14572;43.120;1.178;2023-12-04T07:34:55;5.97;;;3.08;;
26391;SDS011;14572;43.120;1.178;2023-12-04T07:37:25;11.15;;;6.13;;
26391;SDS011;14572;43.120;1.178;2023-12-04T07:39:55;10.10;;;5.70;;
26391;SDS011;14572;43.120;1.178;2023-12-04T07:42:22;7.80;;;3.22;;
26391;SDS011;14572;43.120;1.178;2023-12-04T07:44:50;7.30;;;2.63;;
26391;SDS011;14572;43.120;1.178;2023-12-04T07:47:17;4.72;;;2.33;;
26391;SDS011;14572;43.120;1.178;2023-12-04T07:49:47;7.97;;;3.22;;
26391;SDS011;14572;43.120;1.178;2023-12-04T07:52:16;5.85;;;3.17;;
26391;SDS011;14572;43.120;1.178;2023-12-04T07:54:45;7.10;;;3.70;;
26391;SDS011;14572;43.120;1.178;2023-12-04T07:57:13;8.38;;;4.35;;
26391;SDS011;14572;43.120;1.178;2023-12-04T07:59:40;11.43;;;6.65;;
26391;SDS011;14572;43.120;1.178;2023-12-04T08:02:10;9.02;;;4.28;;
26391;SDS011;14572;43.120;1.178;2023-12-04T08:04:40;17.75;;;8.60;;
26391;SDS011;14572;43.120;1.178;2023-12-04T08:07:08;15.27;;;7.28;;
26391;SDS011;14572;43.120;1.178;2023-12-04T08:09:35;15.23;;;7.72;;
26391;SDS011;14572;43.120;1.178;2023-12-04T08:12:04;22.23;;;10.23;;
26391;SDS011;14572;43.120;1.178;2023-12-04T08:14:32;14.02;;;7.97;;
26391;SDS011;14572;43.120;1.178;2023-12-04T08:17:00;14.45;;;7.05;;
26391;SDS011;14572;43.120;1.178;2023-12-04T08:19:27;10.02;;;5.65;;
26391;SDS011;14572;43.120;1.178;2023-12-04T08:21:55;14.70;;;7.53;;
26391;SDS011;14572;43.120;1.178;2023-12-04T08:24:22;16.05;;;7.18;;
26391;SDS011;14572;43.120;1.178;2023-12-04T08:26:49;11.50;;;6.70;;
26391;SDS011;14572;43.120;1.178;2023-12-04T08:29:18;10.98;;;5.78;;
26391;SDS011;14572;43.120;1.178;2023-12-04T08:31:45;7.30;;;3.42;;
26391;SDS011;14572;43.120;1.178;2023-12-04T08:34:13;5.85;;;3.05;;
26391;SDS011;14572;43.120;1.178;2023-12-04T08:36:40;5.57;;;3.00;;
26391;SDS011;14572;43.120;1.178;2023-12-04T08:39:08;6.57;;;3.78;;
26391;SDS011;14572;43.120;1.178;2023-12-04T08:41:35;4.90;;;2.97;;
26391;SDS011;14572;43.120;1.178;2023-12-04T08:44:02;24.98;;;12.85;;
26391;SDS011;14572;43.120;1.178;2023-12-04T08:46:31;32.28;;;16.60;;
26391;SDS011;14572;43.120;1.178;2023-12-04T08:49:00;29.50;;;15.60;;
26391;SDS011;14572;43.120;1.178;2023-12-04T08:51:27;19.35;;;9.88;;
26391;SDS011;14572;43.120;1.178;2023-12-04T08:53:54;24.65;;;10.25;;
26391;SDS011;14572;43.120;1.178;2023-12-04T08:56:24;19.35;;;11.13;;
26391;SDS011;14572;43.120;1.178;2023-12-04T08:58:51;17.35;;;9.05;;
26391;SDS011;14572;43.120;1.178;2023-12-04T09:01:18;14.75;;;8.68;;
26391;SDS011;14572;43.120;1.178;2023-12-04T09:03:47;12.30;;;7.50;;
26391;SDS011;14572;43.120;1.178;2023-12-04T09:06:14;8.60;;;4.97;;
26391;SDS011;14572;43.120;1.178;2023-12-04T09:08:42;18.00;;;9.75;;
26391;SDS011;14572;43.120;1.178;2023-12-04T09:11:09;16.67;;;9.88;;
26391;SDS011;14572;43.120;1.178;2023-12-04T09:13:36;20.50;;;9.40;;
26391;SDS011;14572;43.120;1.178;2023-12-04T09:16:04;15.98;;;9.00;;
26391;SDS011;14572;43.120;1.178;2023-12-04T09:18:31;19.02;;;10.43;;
26391;SDS011;14572;43.120;1.178;2023-12-04T09:21:01;18.45;;;9.88;;
26391;SDS011;14572;43.120;1.178;2023-12-04T09:23:29;12.02;;;7.13;;
26391;SDS011;14572;43.120;1.178;2023-12-04T09:25:57;10.55;;;5.90;;
26391;SDS011;14572;43.120;1.178;2023-12-04T09:28:24;6.57;;;3.72;;
26391;SDS011;14572;43.120;1.178;2023-12-04T09:30:52;8.20;;;4.10;;
26391;SDS011;14572;43.120;1.178;2023-12-04T09:33:19;5.88;;;3.53;;
26391;SDS011;14572;43.120;1.178;2023-12-04T09:35:46;4.95;;;3.15;;
26391;SDS011;14572;43.120;1.178;2023-12-04T09:38:15;8.23;;;4.57;;
26391;SDS011;14572;43.120;1.178;2023-12-04T09:40:45;8.30;;;3.65;;
26391;SDS011;14572;43.120;1.178;2023-12-04T09:43:12;5.70;;;3.33;;
26391;SDS011;14572;43.120;1.178;2023-12-04T09:45:39;6.10;;;3.10;;
26391;SDS011;14572;43.120;1.178;2023-12-04T09:48:07;10.02;;;4.95;;
26391;SDS011;14572;43.120;1.178;2023-12-04T09:50:34;7.28;;;4.25;;
26391;SDS011;14572;43.120;1.178;2023-12-04T09:53:03;6.47;;;3.90;;
26391;SDS011;14572;43.120;1.178;2023-12-04T09:55:31;5.15;;;3.45;;
26391;SDS011;14572;43.120;1.178;2023-12-04T09:57:59;7.80;;;3.70;;
26391;SDS011;14572;43.120;1.178;2023-12-04T10:00:26;5.97;;;3.30;;
26391;SDS011;14572;43.120;1.178;2023-12-04T10:02:54;5.32;;;3.30;;
26391;SDS011;14572;43.120;1.178;2023-12-04T10:05:21;5.53;;;3.15;;
26391;SDS011;14572;43.120;1.178;2023-12-04T10:07:49;4.65;;;2.85;;
26391;SDS011;14572;43.120;1.178;2023-12-04T10:10:16;4.97;;;2.78;;
26391;SDS011;14572;43.120;1.178;2023-12-04T10:12:46;6.47;;;2.70;;
26391;SDS011;14572;43.120;1.178;2023-12-04T10:15:13;7.38;;;3.15;;
26391;SDS011;14572;43.120;1.178;2023-12-04T10:17:41;4.97;;;3.08;;
26391;SDS011;14572;43.120;1.178;2023-12-04T10:20:10;3.92;;;2.50;;
26391;SDS011;14572;43.120;1.178;2023-12-04T10:22:38;4.75;;;2.45;;
26391;SDS011;14572;43.120;1.178;2023-12-04T10:25:15;4.55;;;2.75;;
26391;SDS011;14572;43.120;1.178;2023-12-04T10:27:43;3.85;;;2.40;;
26391;SDS011;14572;43.120;1.178;2023-12-04T10:30:22;3.53;;;2.10;;
26391;SDS011;14572;43.120;1.178;2023-12-04T10:32:53;6.68;;;2.28;;
26391;SDS011;14572;43.120;1.178;2023-12-04T10:35:21;2.78;;;1.90;;
26391;SDS011;14572;43.120;1.178;2023-12-04T10:37:49;4.72;;;1.80;;
26391;SDS011;14572;43.120;1.178;2023-12-04T10:40:24;3.47;;;1.40;;
26391;SDS011;14572;43.120;1.178;2023-12-04T10:42:53;2.25;;;1.60;;
26391;SDS011;14572;43.120;1.178;2023-12-04T10:45:39;3.63;;;1.58;;
26391;SDS011;14572;43.120;1.178;2023-12-04T10:48:07;2.58;;;1.48;;
26391;SDS011;14572;43.120;1.178;2023-12-04T10:50:35;2.20;;;1.40;;
26391;SDS011;14572;43.120;1.178;2023-12-04T10:53:04;5.10;;;2.20;;
26391;SDS011;14572;43.120;1.178;2023-12-04T10:55:32;6.25;;;2.35;;
26391;SDS011;14572;43.120;1.178;2023-12-04T10:58:01;2.75;;;1.80;;
26391;SDS011;14572;43.120;1.178;2023-12-04T11:00:30;2.90;;;1.67;;
26391;SDS011;14572;43.120;1.178;2023-12-04T11:03:02;2.95;;;1.75;;
26391;SDS011;14572;43.120;1.178;2023-12-04T11:05:31;2.25;;;1.20;;
26391;SDS011;14572;43.120;1.178;2023-12-04T11:08:00;2.30;;;1.48;;
26391;SDS011;14572;43.120;1.178;2023-12-04T11:10:29;1.65;;;1.48;;
26391;SDS011;14572;43.120;1.178;2023-12-04T11:12:57;2.50;;;1.45;;
26391;SDS011;14572;43.120;1.178;2023-12-04T11:15:30;3.55;;;2.03;;
26391;SDS011;14572;43.120;1.178;2023-12-04T11:17:59;4.20;;;2.47;;
26391;SDS011;14572;43.120;1.178;2023-12-04T11:20:28;5.25;;;1.75;;
26391;SDS011;14572;43.120;1.178;2023-12-04T11:22:57;4.30;;;1.58;;
26391;SDS011;14572;43.120;1.178;2023-12-04T11:25:24;1.77;;;1.13;;
26391;SDS011;14572;43.120;1.178;2023-12-04T11:27:54;3.53;;;1.13;;
26391;SDS011;14572;43.120;1.178;2023-12-04T11:30:22;7.68;;;1.27;;
26391;SDS011;14572;43.120;1.178;2023-12-04T11:32:50;2.25;;;1.58;;
26391;SDS011;14572;43.120;1.178;2023-12-04T11:35:23;2.97;;;1.42;;
26391;SDS011;14572;43.120;1.178;2023-12-04T11:37:52;3.90;;;1.50;;
26391;SDS011;14572;43.120;1.178;2023-12-04T11:40:19;3.90;;;1.75;;
26391;SDS011;14572;43.120;1.178;2023-12-04T11:42:47;1.65;;;1.08;;
26391;SDS011;14572;43.120;1.178;2023-12-04T11:45:18;2.70;;;1.40;;
26391;SDS011;14572;43.120;1.178;2023-12-04T11:47:48;2.35;;;1.05;;
26391;SDS011;14572;43.120;1.178;2023-12-04T11:50:16;2.45;;;1.42;;
26391;SDS011;14572;43.120;1.178;2023-12-04T11:52:46;4.30;;;1.30;;
26391;SDS011;14572;43.120;1.178;2023-12-04T11:55:15;2.42;;;1.40;;
26391;SDS011;14572;43.120;1.178;2023-12-04T11:57:43;5.75;;;1.30;;
26391;SDS011;14572;43.120;1.178;2023-12-04T12:00:12;1.50;;;1.02;;
26391;SDS011;14572;43.120;1.178;2023-12-04T12:02:46;3.38;;;1.65;;
26391;SDS011;14572;43.120;1.178;2023-12-04T12:05:14;3.13;;;1.60;;
26391;SDS011;14572;43.120;1.178;2023-12-04T12:07:42;1.80;;;1.20;;
26391;SDS011;14572;43.120;1.178;2023-12-04T12:10:11;2.63;;;1.10;;
26391;SDS011;14572;43.120;1.178;2023-12-04T12:12:38;5.35;;;1.35;;
26391;SDS011;14572;43.120;1.178;2023-12-04T12:15:08;1.88;;;1.30;;
26391;SDS011;14572;43.120;1.178;2023-12-04T12:17:36;3.75;;;1.75;;
26391;SDS011;14572;43.120;1.178;2023-12-04T12:20:04;2.75;;;1.60;;
26391;SDS011;14572;43.120;1.178;2023-12-04T12:22:32;2.70;;;1.50;;
26391;SDS011;14572;43.120;1.178;2023-12-04T12:25:00;3.85;;;1.23;;
26391;SDS011;14572;43.120;1.178;2023-12-04T12:27:29;3.58;;;1.70;;
26391;SDS011;14572;43.120;1.178;2023-12-04T12:29:57;2.47;;;1.55;;
26391;SDS011;14572;43.120;1.178;2023-12-04T12:32:24;2.58;;;1.23;;
26391;SDS011;14572;43.120;1.178;2023-12-04T12:34:52;3.38;;;1.80;;
26391;SDS011;14572;43.120;1.178;2023-12-04T12:37:20;4.38;;;1.40;;
26391;SDS011;14572;43.120;1.178;2023-12-04T12:39:47;2.50;;;1.40;;
26391;SDS011;14572;43.120;1.178;2023-12-04T12:42:20;2.75;;;1.25;;
26391;SDS011;14572;43.120;1.178;2023-12-04T12:44:49;3.78;;;1.55;;
26391;SDS011;14572;43.120;1.178;2023-12-04T12:47:17;2.17;;;1.45;;
26391;SDS011;14572;43.120;1.178;2023-12-04T12:49:44;2.08;;;1.55;;
26391;SDS011;14572;43.120;1.178;2023-12-04T12:52:11;4.88;;;2.47;;
26391;SDS011;14572;43.120;1.178;2023-12-04T12:54:38;2.97;;;1.73;;
26391;SDS011;14572;43.120;1.178;2023-12-04T12:57:06;3.17;;;1.33;;
26391;SDS011;14572;43.120;1.178;2023-12-04T12:59:33;5.47;;;1.35;;
26391;SDS011;14572;43.120;1.178;2023-12-04T13:02:02;3.45;;;1.58;;
26391;SDS011;14572;43.120;1.178;2023-12-04T13:04:34;2.60;;;1.40;;
26391;SDS011;14572;43.120;1.178;2023-12-04T13:07:02;2.65;;;1.30;;
26391;SDS011;14572;43.120;1.178;2023-12-04T13:09:31;3.03;;;1.50;;
26391;SDS011;14572;43.120;1.178;2023-12-04T13:11:58;3.90;;;1.88;;
26391;SDS011;14572;43.120;1.178;2023-12-04T13:14:26;4.45;;;1.70;;
26391;SDS011;14572;43.120;1.178;2023-12-04T13:16:53;3.85;;;2.00;;
26391;SDS011;14572;43.120;1.178;2023-12-04T13:19:22;3.28;;;1.52;;
26391;SDS011;14572;43.120;1.178;2023-12-04T13:21:50;2.92;;;1.70;;
26391;SDS011;14572;43.120;1.178;2023-12-04T13:24:17;4.22;;;2.28;;
26391;SDS011;14572;43.120;1.178;2023-12-04T13:26:44;6.93;;;2.38;;
26391;SDS011;14572;43.120;1.178;2023-12-04T13:29:11;6.68;;;2.22;;
26391;SDS011;14572;43.120;1.178;2023-12-04T13:31:40;5.80;;;2.92;;
26391;SDS011;14572;43.120;1.178;2023-12-04T13:34:07;4.50;;;2.58;;
26391;SDS011;14572;43.120;1.178;2023-12-04T13:36:37;5.93;;;2.83;;
26391;SDS011;14572;43.120;1.178;2023-12-04T13:39:04;6.53;;;3.30;;
26391;SDS011;14572;43.120;1.178;2023-12-04T13:41:41;4.15;;;3.00;;
26391;SDS011;14572;43.120;1.178;2023-12-04T13:44:26;5.65;;;3.67;;
26391;SDS011;14572;43.120;1.178;2023-12-04T13:46:53;4.07;;;2.42;;
26391;SDS011;14572;43.120;1.178;2023-12-04T13:49:20;4.55;;;2.72;;
26391;SDS011;14572;43.120;1.178;2023-12-04T13:51:49;3.95;;;2.42;;
26391;SDS011;14572;43.120;1.178;2023-12-04T13:54:16;4.53;;;2.70;;
26391;SDS011;14572;43.120;1.178;2023-12-04T13:56:46;6.45;;;2.30;;
26391;SDS011;14572;43.120;1.178;2023-12-04T13:59:19;3.80;;;2.70;;
26391;SDS011;14572;43.120;1.178;2023-12-04T14:01:47;3.88;;;2.83;;
26391;SDS011;14572;43.120;1.178;2023-12-04T14:04:16;6.05;;;2.20;;
26391;SDS011;14572;43.120;1.178;2023-12-04T14:06:43;5.60;;;2.30;;
26391;SDS011;14572;43.120;1.178;2023-12-04T14:09:13;4.85;;;3.08;;
26391;SDS011;14572;43.120;1.178;2023-12-04T14:11:41;7.93;;;5.50;;
26391;SDS011;14572;43.120;1.178;2023-12-04T14:14:10;8.32;;;5.03;;
26391;SDS011;14572;43.120;1.178;2023-12-04T14:16:38;8.05;;;4.88;;
26391;SDS011;14572;43.120;1.178;2023-12-04T14:19:05;10.00;;;4.75;;
26391;SDS011;14572;43.120;1.178;2023-12-04T14:21:32;7.13;;;3.90;;
26391;SDS011;14572;43.120;1.178;2023-12-04T14:23:59;5.60;;;3.30;;
26391;SDS011;14572;43.120;1.178;2023-12-04T14:26:28;6.18;;;3.70;;
26391;SDS011;14572;43.120;1.178;2023-12-04T14:28:55;11.27;;;5.30;;
26391;SDS011;14572;43.120;1.178;2023-12-04T14:31:26;7.60;;;4.20;;
26391;SDS011;14572;43.120;1.178;2023-12-04T14:33:53;6.32;;;3.40;;
26391;SDS011;14572;43.120;1.178;2023-12-04T14:36:20;6.65;;;3.90;;
26391;SDS011;14572;43.120;1.178;2023-12-04T14:38:47;7.13;;;3.25;;
26391;SDS011;14572;43.120;1.178;2023-12-04T14:41:14;4.70;;;2.70;;
26391;SDS011;14572;43.120;1.178;2023-12-04T14:43:43;4.35;;;2.80;;
26391;SDS011;14572;43.120;1.178;2023-12-04T14:46:10;5.95;;;3.25;;
26391;SDS011;14572;43.120;1.178;2023-12-04T14:48:38;7.00;;;2.78;;
26391;SDS011;14572;43.120;1.178;2023-12-04T14:51:06;5.40;;;2.25;;